createdAt,value
2023-03-17T00:05:30.075Z,91123.12
2023-03-17T00:13:52.992Z,91099.36
2023-03-17T00:22:18.540Z,91057.42
2023-03-17T00:30:41.539Z,91052.95
2023-03-17T00:47:36.017Z,91016.77
2023-03-17T00:55:59.379Z,90986.84
2023-03-17T01:04:24.075Z,90980.43
2023-03-17T01:12:47.274Z,90973.59
2023-03-17T01:21:10.345Z,90906.32
2023-03-17T01:29:34.994Z,90841.92
2023-03-17T01:37:59.438Z,90817.20
2023-03-17T01:46:29.378Z,90837.96
2023-03-17T01:55:02.676Z,90827.73
2023-03-17T02:03:26.660Z,90778.95
2023-03-17T02:11:51.119Z,90749.91
2023-03-17T02:20:17.291Z,90740.72
2023-03-17T02:28:40.547Z,90717.55
2023-03-17T02:37:03.814Z,90709.98
2023-03-17T02:45:27.834Z,90714.63
2023-03-17T02:53:51.154Z,90697.98
2023-03-17T03:02:14.495Z,90682.02
2023-03-17T03:10:37.777Z,90679.05
2023-03-17T03:19:00.795Z,90714.36
2023-03-17T03:27:24.152Z,90736.52
2023-03-17T03:35:47.476Z,90762.31
2023-03-17T03:44:11.380Z,90776.17
2023-03-17T03:52:35.682Z,90761.31
2023-03-17T04:00:58.621Z,90715.45
2023-03-17T04:09:21.518Z,90689.02
2023-03-17T04:17:45.618Z,90668.83
2023-03-17T04:26:11.789Z,90615.30
2023-03-17T04:34:34.770Z,90567.50
2023-03-17T04:42:57.688Z,90544.73
2023-03-17T04:51:20.701Z,90564.83
2023-03-17T04:59:43.654Z,90564.67
2023-03-17T05:08:06.589Z,90537.36
2023-03-17T05:16:29.628Z,90539.27
2023-03-17T05:24:52.533Z,90590.70
2023-03-17T05:33:16.644Z,90628.11
2023-03-17T05:41:39.629Z,90653.55
2023-03-17T05:50:05.961Z,90710.00
2023-03-17T05:58:29.117Z,90831.63
2023-03-17T06:06:52.038Z,90981.71
2023-03-17T06:15:17.125Z,91471.88
2023-03-17T06:23:40.240Z,92557.05
2023-03-17T06:32:19.178Z,93238.91
2023-03-17T06:40:43.591Z,93825.45
2023-03-17T06:49:08.070Z,94189.52
2023-03-17T06:57:31.935Z,94154.05
2023-03-17T07:05:54.840Z,94060.58
2023-03-17T07:14:18.850Z,94007.87
2023-03-17T07:22:42.563Z,93991.45
2023-03-17T07:31:08.955Z,94074.16
2023-03-17T07:39:31.953Z,94234.38
2023-03-17T07:47:54.958Z,94336.44
2023-03-17T07:56:17.940Z,94499.13
2023-03-17T08:04:41.691Z,94674.90
2023-03-17T08:13:04.773Z,94682.94
2023-03-17T08:21:28.219Z,94546.98
2023-03-17T08:29:53.827Z,94416.83
2023-03-17T08:38:18.162Z,94312.76
2023-03-17T08:46:41.494Z,94337.20
2023-03-17T08:55:04.635Z,94397.33
2023-03-17T09:03:29.752Z,94495.84
2023-03-17T09:11:52.805Z,94570.50
2023-03-17T09:20:16.143Z,94650.36
2023-03-17T09:28:39.345Z,94768.79
2023-03-17T09:37:02.480Z,94841.85
2023-03-17T09:45:43.457Z,94872.45
2023-03-17T09:54:21.225Z,94919.57
2023-03-17T10:02:45.070Z,94933.83
2023-03-17T10:11:27.208Z,94943.64
2023-03-17T10:20:17.438Z,94947.78
2023-03-17T10:28:42.617Z,94934.63
2023-03-17T10:37:15.358Z,94980.02
2023-03-17T10:45:47.988Z,95029.42
2023-03-17T10:54:20.463Z,95066.23
2023-03-17T11:02:46.978Z,95083.27
2023-03-17T11:11:26.689Z,95069.73
2023-03-17T11:20:22.303Z,95083.23
2023-03-17T11:29:12.025Z,95110.73
2023-03-17T11:37:44.046Z,95106.14
2023-03-17T11:46:13.362Z,95107.77
2023-03-17T11:54:46.007Z,95126.55
2023-03-17T12:03:17.833Z,95104.34
2023-03-17T12:11:43.461Z,95102.04
2023-03-17T12:20:18.847Z,95134.09
2023-03-17T12:28:57.450Z,95132.20
2023-03-17T12:37:22.667Z,95110.34
2023-03-17T12:46:04.549Z,95132.05
2023-03-17T12:54:37.222Z,95165.78
2023-03-17T13:03:23.674Z,95199.67
2023-03-17T13:11:49.547Z,95207.09
2023-03-17T13:20:19.678Z,95151.88
2023-03-17T13:28:47.757Z,95130.92
2023-03-17T13:37:28.997Z,95143.24
2023-03-17T13:45:56.322Z,95134.76
2023-03-17T13:54:28.870Z,95121.13
2023-03-17T14:03:02.904Z,95133.10
2023-03-17T14:11:38.617Z,95137.45
2023-03-17T14:20:04.790Z,95116.86
2023-03-17T14:28:35.607Z,95062.77
2023-03-17T14:37:04.437Z,95013.81
2023-03-17T14:45:33.026Z,94963.89
2023-03-17T14:54:06.085Z,94914.66
2023-03-17T15:02:51.377Z,94865.02
2023-03-17T15:11:36.163Z,94782.38
2023-03-17T15:20:06.755Z,94694.75
2023-03-17T15:28:31.687Z,94606.70
2023-03-17T15:36:55.560Z,94537.14
2023-03-17T15:45:18.592Z,94474.59
2023-03-17T15:53:41.595Z,94409.65
2023-03-17T16:02:27.572Z,94354.85
2023-03-17T16:10:52.122Z,94306.77
2023-03-17T16:19:22.783Z,94267.05
2023-03-17T16:27:46.921Z,94235.83
2023-03-17T16:36:14.760Z,94202.23
2023-03-17T16:44:37.776Z,94160.78
2023-03-17T16:53:00.808Z,94125.65
2023-03-17T17:01:26.146Z,94088.64
2023-03-17T17:09:49.052Z,94044.73
2023-03-17T17:18:17.908Z,93984.81
2023-03-17T17:26:41.305Z,93919.68
2023-03-17T17:35:04.699Z,93864.98
2023-03-17T17:43:27.748Z,93822.08
2023-03-17T17:51:50.708Z,93774.59
2023-03-17T18:00:17.361Z,93728.71
2023-03-17T18:08:41.178Z,93676.83
2023-03-17T18:17:04.348Z,93613.61
2023-03-17T18:25:27.478Z,93543.20
2023-03-17T18:33:55.520Z,93478.92
2023-03-17T18:42:18.542Z,93438.23
2023-03-17T18:50:41.466Z,93411.99
2023-03-17T18:59:04.435Z,93399.95
2023-03-17T19:07:27.583Z,93393.17
2023-03-17T19:15:51.081Z,93384.48
2023-03-17T19:24:15.038Z,93367.39
2023-03-17T19:32:37.981Z,93350.75
2023-03-17T19:41:00.987Z,93333.66
2023-03-17T19:49:23.991Z,93327.37
2023-03-17T19:57:47.891Z,93320.65
2023-03-17T20:06:13.254Z,93310.14
2023-03-17T20:14:36.952Z,93289.16
2023-03-17T20:22:59.914Z,93273.80
2023-03-17T20:31:23.696Z,93244.88
2023-03-17T20:39:47.145Z,93205.73
2023-03-17T20:48:11.302Z,93166.48
2023-03-17T20:56:34.422Z,93147.51
2023-03-17T21:04:57.403Z,93128.24
2023-03-17T21:13:20.439Z,93090.95
2023-03-17T21:21:43.316Z,93065.36
2023-03-17T21:30:09.840Z,93063.69
2023-03-17T21:38:33.277Z,93061.30
2023-03-17T21:46:56.798Z,93060.50
2023-03-17T21:55:19.856Z,93049.80
2023-03-17T22:03:45.698Z,93037.02
2023-03-17T22:12:08.880Z,93012.00
2023-03-17T22:20:32.021Z,92994.02
2023-03-17T22:28:55.346Z,92971.52
2023-03-17T22:37:18.365Z,92922.33
2023-03-17T22:45:41.409Z,92874.08
2023-03-17T22:54:04.515Z,92822.01
2023-03-17T23:02:27.425Z,92774.89
2023-03-17T23:10:51.345Z,92736.19
2023-03-17T23:19:14.406Z,92704.14
2023-03-17T23:27:37.302Z,92687.89
2023-03-17T23:36:00.681Z,92673.33
2023-03-17T23:44:23.642Z,92643.79
2023-03-17T23:52:47.344Z,92624.98
